sensor_id;sensor_type;location;lat;lon;timestamp;P1;durP1;ratioP1;P2;durP2;ratioP2
8708;SDS011;4391;48.678;9.280;2024-02-21T00:02:22;8.32;;;2.85;;
8708;SDS011;4391;48.678;9.280;2024-02-21T00:04:49;11.00;;;3.40;;
8708;SDS011;4391;48.678;9.280;2024-02-21T00:07:16;6.90;;;2.57;;
8708;SDS011;4391;48.678;9.280;2024-02-21T00:09:43;11.38;;;3.38;;
8708;SDS011;4391;48.678;9.280;2024-02-21T00:12:10;9.75;;;3.25;;
8708;SDS011;4391;48.678;9.280;2024-02-21T00:14:40;7.88;;;2.53;;
8708;SDS011;4391;48.678;9.280;2024-02-21T00:17:07;12.63;;;2.85;;
8708;SDS011;4391;48.678;9.280;2024-02-21T00:19:34;10.30;;;3.10;;
8708;SDS011;4391;48.678;9.280;2024-02-21T00:22:01;12.30;;;3.50;;
8708;SDS011;4391;48.678;9.280;2024-02-21T00:24:28;10.73;;;3.90;;
8708;SDS011;4391;48.678;9.280;2024-02-21T00:26:55;10.82;;;3.58;;
8708;SDS011;4391;48.678;9.280;2024-02-21T00:29:22;8.75;;;3.03;;
8708;SDS011;4391;48.678;9.280;2024-02-21T00:31:50;9.67;;;2.73;;
8708;SDS011;4391;48.678;9.280;2024-02-21T00:34:17;11.23;;;2.95;;
8708;SDS011;4391;48.678;9.280;2024-02-21T00:36:43;13.75;;;3.50;;
8708;SDS011;4391;48.678;9.280;2024-02-21T00:39:10;8.65;;;2.65;;
8708;SDS011;4391;48.678;9.280;2024-02-21T00:41:37;10.07;;;3.00;;
8708;SDS011;4391;48.678;9.280;2024-02-21T00:44:04;16.23;;;3.27;;
8708;SDS011;4391;48.678;9.280;2024-02-21T00:46:31;12.60;;;3.03;;
8708;SDS011;4391;48.678;9.280;2024-02-21T00:48:59;8.38;;;3.05;;
8708;SDS011;4391;48.678;9.280;2024-02-21T00:51:26;7.35;;;2.53;;
8708;SDS011;4391;48.678;9.280;2024-02-21T00:53:53;9.00;;;2.63;;
8708;SDS011;4391;48.678;9.280;2024-02-21T00:56:20;12.57;;;2.90;;
8708;SDS011;4391;48.678;9.280;2024-02-21T00:58:47;11.85;;;2.80;;
8708;SDS011;4391;48.678;9.280;2024-02-21T01:01:20;8.05;;;3.00;;
8708;SDS011;4391;48.678;9.280;2024-02-21T01:03:48;9.93;;;2.33;;
8708;SDS011;4391;48.678;9.280;2024-02-21T01:06:17;8.65;;;2.40;;
8708;SDS011;4391;48.678;9.280;2024-02-21T01:08:44;11.03;;;2.93;;
8708;SDS011;4391;48.678;9.280;2024-02-21T01:11:11;10.70;;;2.65;;
8708;SDS011;4391;48.678;9.280;2024-02-21T01:13:38;7.97;;;2.40;;
8708;SDS011;4391;48.678;9.280;2024-02-21T01:16:05;9.32;;;2.80;;
8708;SDS011;4391;48.678;9.280;2024-02-21T01:18:32;7.93;;;2.63;;
8708;SDS011;4391;48.678;9.280;2024-02-21T01:20:59;9.23;;;2.63;;
8708;SDS011;4391;48.678;9.280;2024-02-21T01:23:27;10.40;;;2.75;;
8708;SDS011;4391;48.678;9.280;2024-02-21T01:25:54;9.85;;;2.80;;
8708;SDS011;4391;48.678;9.280;2024-02-21T01:28:21;10.18;;;2.38;;
8708;SDS011;4391;48.678;9.280;2024-02-21T01:30:48;11.27;;;3.05;;
8708;SDS011;4391;48.678;9.280;2024-02-21T01:33:15;9.83;;;2.23;;
8708;SDS011;4391;48.678;9.280;2024-02-21T01:35:44;8.55;;;2.85;;
8708;SDS011;4391;48.678;9.280;2024-02-21T01:38:12;12.98;;;2.75;;
8708;SDS011;4391;48.678;9.280;2024-02-21T01:40:40;15.13;;;2.40;;
8708;SDS011;4391;48.678;9.280;2024-02-21T01:43:15;8.70;;;2.50;;
8708;SDS011;4391;48.678;9.280;2024-02-21T01:45:43;8.97;;;2.30;;
8708;SDS011;4391;48.678;9.280;2024-02-21T01:48:12;9.82;;;2.65;;
8708;SDS011;4391;48.678;9.280;2024-02-21T01:50:39;12.70;;;2.80;;
8708;SDS011;4391;48.678;9.280;2024-02-21T01:53:06;11.32;;;2.50;;
8708;SDS011;4391;48.678;9.280;2024-02-21T01:55:34;11.85;;;2.50;;
8708;SDS011;4391;48.678;9.280;2024-02-21T01:58:02;10.50;;;2.30;;
8708;SDS011;4391;48.678;9.280;2024-02-21T02:00:29;7.70;;;2.42;;
8708;SDS011;4391;48.678;9.280;2024-02-21T02:02:58;8.23;;;2.67;;
8708;SDS011;4391;48.678;9.280;2024-02-21T02:05:25;8.38;;;2.67;;
8708;SDS011;4391;48.678;9.280;2024-02-21T02:07:53;8.48;;;2.72;;
8708;SDS011;4391;48.678;9.280;2024-02-21T02:10:20;6.97;;;2.20;;
8708;SDS011;4391;48.678;9.280;2024-02-21T02:12:47;10.98;;;2.67;;
8708;SDS011;4391;48.678;9.280;2024-02-21T02:15:15;9.73;;;3.03;;
8708;SDS011;4391;48.678;9.280;2024-02-21T02:17:42;11.00;;;2.55;;
8708;SDS011;4391;48.678;9.280;2024-02-21T02:20:09;10.18;;;2.78;;
8708;SDS011;4391;48.678;9.280;2024-02-21T02:22:37;5.80;;;2.20;;
8708;SDS011;4391;48.678;9.280;2024-02-21T02:25:08;10.55;;;2.47;;
8708;SDS011;4391;48.678;9.280;2024-02-21T02:27:41;7.32;;;2.63;;
8708;SDS011;4391;48.678;9.280;2024-02-21T02:30:09;8.30;;;2.25;;
8708;SDS011;4391;48.678;9.280;2024-02-21T02:32:37;13.35;;;2.55;;
8708;SDS011;4391;48.678;9.280;2024-02-21T02:35:04;10.23;;;2.27;;
8708;SDS011;4391;48.678;9.280;2024-02-21T02:37:31;7.97;;;2.40;;
8708;SDS011;4391;48.678;9.280;2024-02-21T02:39:58;8.75;;;2.63;;
8708;SDS011;4391;48.678;9.280;2024-02-21T02:42:26;8.85;;;2.50;;
8708;SDS011;4391;48.678;9.280;2024-02-21T02:44:53;7.88;;;2.22;;
8708;SDS011;4391;48.678;9.280;2024-02-21T02:47:22;9.00;;;2.23;;
8708;SDS011;4391;48.678;9.280;2024-02-21T02:49:49;9.20;;;2.45;;
8708;SDS011;4391;48.678;9.280;2024-02-21T02:52:16;8.55;;;2.80;;
8708;SDS011;4391;48.678;9.280;2024-02-21T02:54:42;9.32;;;2.55;;
8708;SDS011;4391;48.678;9.280;2024-02-21T02:57:09;10.40;;;2.42;;
8708;SDS011;4391;48.678;9.280;2024-02-21T02:59:38;7.10;;;2.23;;
8708;SDS011;4391;48.678;9.280;2024-02-21T03:02:04;9.25;;;2.45;;
8708;SDS011;4391;48.678;9.280;2024-02-21T03:04:31;9.25;;;2.45;;
8708;SDS011;4391;48.678;9.280;2024-02-21T03:06:58;9.40;;;2.40;;
8708;SDS011;4391;48.678;9.280;2024-02-21T03:09:25;8.13;;;2.33;;
8708;SDS011;4391;48.678;9.280;2024-02-21T03:11:53;9.90;;;2.20;;
8708;SDS011;4391;48.678;9.280;2024-02-21T03:14:22;10.93;;;2.40;;
8708;SDS011;4391;48.678;9.280;2024-02-21T03:16:52;7.50;;;2.00;;
8708;SDS011;4391;48.678;9.280;2024-02-21T03:19:19;12.68;;;2.42;;
8708;SDS011;4391;48.678;9.280;2024-02-21T03:21:46;7.97;;;2.53;;
8708;SDS011;4391;48.678;9.280;2024-02-21T03:24:12;9.07;;;1.87;;
8708;SDS011;4391;48.678;9.280;2024-02-21T03:26:39;11.18;;;2.20;;
8708;SDS011;4391;48.678;9.280;2024-02-21T03:29:06;9.88;;;2.45;;
8708;SDS011;4391;48.678;9.280;2024-02-21T03:31:33;10.77;;;2.20;;
8708;SDS011;4391;48.678;9.280;2024-02-21T03:34:02;9.43;;;1.90;;
8708;SDS011;4391;48.678;9.280;2024-02-21T03:36:29;10.03;;;1.90;;
8708;SDS011;4391;48.678;9.280;2024-02-21T03:38:56;8.77;;;2.38;;
8708;SDS011;4391;48.678;9.280;2024-02-21T03:41:23;5.95;;;1.80;;
8708;SDS011;4391;48.678;9.280;2024-02-21T03:43:50;5.70;;;1.67;;
8708;SDS011;4391;48.678;9.280;2024-02-21T03:46:17;9.25;;;2.10;;
8708;SDS011;4391;48.678;9.280;2024-02-21T03:48:44;8.83;;;2.20;;
8708;SDS011;4391;48.678;9.280;2024-02-21T03:51:12;8.75;;;1.88;;
8708;SDS011;4391;48.678;9.280;2024-02-21T03:53:40;8.88;;;2.08;;
8708;SDS011;4391;48.678;9.280;2024-02-21T03:56:07;7.88;;;1.75;;
8708;SDS011;4391;48.678;9.280;2024-02-21T03:58:34;11.75;;;2.20;;
8708;SDS011;4391;48.678;9.280;2024-02-21T04:01:01;9.27;;;2.13;;
8708;SDS011;4391;48.678;9.280;2024-02-21T04:03:28;9.98;;;1.90;;
8708;SDS011;4391;48.678;9.280;2024-02-21T04:05:56;8.82;;;2.55;;
8708;SDS011;4391;48.678;9.280;2024-02-21T04:08:24;9.27;;;2.15;;
8708;SDS011;4391;48.678;9.280;2024-02-21T04:10:51;10.25;;;2.67;;
8708;SDS011;4391;48.678;9.280;2024-02-21T04:13:18;11.83;;;1.90;;
8708;SDS011;4391;48.678;9.280;2024-02-21T04:15:45;7.07;;;2.70;;
8708;SDS011;4391;48.678;9.280;2024-02-21T04:18:12;7.72;;;2.30;;
8708;SDS011;4391;48.678;9.280;2024-02-21T04:20:40;10.25;;;2.60;;
8708;SDS011;4391;48.678;9.280;2024-02-21T04:23:06;12.88;;;2.30;;
8708;SDS011;4391;48.678;9.280;2024-02-21T04:25:35;9.00;;;1.63;;
8708;SDS011;4391;48.678;9.280;2024-02-21T04:28:02;6.30;;;2.00;;
8708;SDS011;4391;48.678;9.280;2024-02-21T04:30:30;9.10;;;2.00;;
8708;SDS011;4391;48.678;9.280;2024-02-21T04:32:56;8.88;;;2.10;;
8708;SDS011;4391;48.678;9.280;2024-02-21T04:35:23;8.73;;;1.58;;
8708;SDS011;4391;48.678;9.280;2024-02-21T04:37:50;5.83;;;1.67;;
8708;SDS011;4391;48.678;9.280;2024-02-21T04:40:17;9.52;;;1.50;;
8708;SDS011;4391;48.678;9.280;2024-02-21T04:42:48;6.78;;;2.28;;
8708;SDS011;4391;48.678;9.280;2024-02-21T04:45:15;7.40;;;2.47;;
8708;SDS011;4391;48.678;9.280;2024-02-21T04:47:42;7.28;;;1.60;;
8708;SDS011;4391;48.678;9.280;2024-02-21T04:50:09;7.87;;;1.83;;
8708;SDS011;4391;48.678;9.280;2024-02-21T04:52:36;7.55;;;1.75;;
8708;SDS011;4391;48.678;9.280;2024-02-21T04:55:03;8.68;;;1.85;;
8708;SDS011;4391;48.678;9.280;2024-02-21T04:57:31;10.40;;;1.92;;
8708;SDS011;4391;48.678;9.280;2024-02-21T04:59:59;9.25;;;2.00;;
8708;SDS011;4391;48.678;9.280;2024-02-21T05:02:26;8.13;;;1.83;;
8708;SDS011;4391;48.678;9.280;2024-02-21T05:04:53;6.28;;;1.85;;
8708;SDS011;4391;48.678;9.280;2024-02-21T05:07:20;8.75;;;2.25;;
8708;SDS011;4391;48.678;9.280;2024-02-21T05:09:47;9.55;;;2.17;;
8708;SDS011;4391;48.678;9.280;2024-02-21T05:12:13;9.80;;;2.17;;
8708;SDS011;4391;48.678;9.280;2024-02-21T05:14:40;5.80;;;1.87;;
8708;SDS011;4391;48.678;9.280;2024-02-21T05:17:08;8.18;;;2.30;;
8708;SDS011;4391;48.678;9.280;2024-02-21T05:19:35;9.40;;;2.33;;
8708;SDS011;4391;48.678;9.280;2024-02-21T05:22:02;6.95;;;2.30;;
8708;SDS011;4391;48.678;9.280;2024-02-21T05:24:29;6.80;;;2.15;;
8708;SDS011;4391;48.678;9.280;2024-02-21T05:26:56;6.47;;;1.97;;
8708;SDS011;4391;48.678;9.280;2024-02-21T05:29:23;8.70;;;1.77;;
8708;SDS011;4391;48.678;9.280;2024-02-21T05:31:56;9.00;;;1.67;;
8708;SDS011;4391;48.678;9.280;2024-02-21T05:34:25;9.80;;;1.88;;
8708;SDS011;4391;48.678;9.280;2024-02-21T05:36:51;6.65;;;2.30;;
8708;SDS011;4391;48.678;9.280;2024-02-21T05:39:19;6.70;;;1.90;;
8708;SDS011;4391;48.678;9.280;2024-02-21T05:41:47;7.75;;;1.80;;
8708;SDS011;4391;48.678;9.280;2024-02-21T05:44:15;11.90;;;2.08;;
8708;SDS011;4391;48.678;9.280;2024-02-21T05:46:42;7.82;;;2.03;;
8708;SDS011;4391;48.678;9.280;2024-02-21T05:49:08;6.63;;;2.08;;
8708;SDS011;4391;48.678;9.280;2024-02-21T05:51:37;6.33;;;1.70;;
8708;SDS011;4391;48.678;9.280;2024-02-21T05:54:03;7.00;;;1.73;;
8708;SDS011;4391;48.678;9.280;2024-02-21T05:56:30;7.65;;;2.00;;
8708;SDS011;4391;48.678;9.280;2024-02-21T05:58:57;5.78;;;1.98;;
8708;SDS011;4391;48.678;9.280;2024-02-21T06:01:24;9.02;;;1.80;;
8708;SDS011;4391;48.678;9.280;2024-02-21T06:03:51;10.17;;;1.83;;
8708;SDS011;4391;48.678;9.280;2024-02-21T06:06:18;9.55;;;2.00;;
8708;SDS011;4391;48.678;9.280;2024-02-21T06:08:49;7.85;;;1.63;;
8708;SDS011;4391;48.678;9.280;2024-02-21T06:11:16;4.65;;;1.60;;
8708;SDS011;4391;48.678;9.280;2024-02-21T06:13:43;6.30;;;2.00;;
8708;SDS011;4391;48.678;9.280;2024-02-21T06:16:10;4.10;;;1.57;;
8708;SDS011;4391;48.678;9.280;2024-02-21T06:18:36;6.63;;;1.95;;
8708;SDS011;4391;48.678;9.280;2024-02-21T06:21:03;9.13;;;1.80;;
8708;SDS011;4391;48.678;9.280;2024-02-21T06:23:30;10.35;;;1.77;;
8708;SDS011;4391;48.678;9.280;2024-02-21T06:25:59;6.80;;;1.80;;
8708;SDS011;4391;48.678;9.280;2024-02-21T06:28:26;8.50;;;1.80;;
8708;SDS011;4391;48.678;9.280;2024-02-21T06:30:52;8.40;;;2.05;;
8708;SDS011;4391;48.678;9.280;2024-02-21T06:33:19;9.13;;;2.00;;
8708;SDS011;4391;48.678;9.280;2024-02-21T06:35:49;7.47;;;1.70;;
8708;SDS011;4391;48.678;9.280;2024-02-21T06:38:18;7.03;;;2.03;;
8708;SDS011;4391;48.678;9.280;2024-02-21T06:40:45;7.27;;;2.00;;
8708;SDS011;4391;48.678;9.280;2024-02-21T06:43:17;10.85;;;2.45;;
8708;SDS011;4391;48.678;9.280;2024-02-21T06:45:45;8.88;;;2.53;;
8708;SDS011;4391;48.678;9.280;2024-02-21T06:48:15;8.27;;;2.55;;
8708;SDS011;4391;48.678;9.280;2024-02-21T06:50:43;9.00;;;2.92;;
8708;SDS011;4391;48.678;9.280;2024-02-21T06:53:10;9.57;;;2.60;;
8708;SDS011;4391;48.678;9.280;2024-02-21T06:55:36;10.15;;;3.25;;
8708;SDS011;4391;48.678;9.280;2024-02-21T06:58:03;9.68;;;2.75;;
8708;SDS011;4391;48.678;9.280;2024-02-21T07:00:35;10.20;;;2.90;;
8708;SDS011;4391;48.678;9.280;2024-02-21T07:03:01;8.57;;;2.55;;
8708;SDS011;4391;48.678;9.280;2024-02-21T07:05:28;7.97;;;2.83;;
8708;SDS011;4391;48.678;9.280;2024-02-21T07:07:55;7.88;;;2.00;;
8708;SDS011;4391;48.678;9.280;2024-02-21T07:10:22;6.35;;;2.20;;
8708;SDS011;4391;48.678;9.280;2024-02-21T07:12:49;6.63;;;2.13;;
8708;SDS011;4391;48.678;9.280;2024-02-21T07:15:17;5.38;;;1.80;;
8708;SDS011;4391;48.678;9.280;2024-02-21T07:17:46;9.67;;;2.30;;
8708;SDS011;4391;48.678;9.280;2024-02-21T07:20:13;6.20;;;2.03;;
8708;SDS011;4391;48.678;9.280;2024-02-21T07:22:39;6.25;;;1.80;;
8708;SDS011;4391;48.678;9.280;2024-02-21T07:25:07;6.53;;;2.08;;
8708;SDS011;4391;48.678;9.280;2024-02-21T07:27:34;11.93;;;2.40;;
8708;SDS011;4391;48.678;9.280;2024-02-21T07:30:02;6.60;;;2.10;;
8708;SDS011;4391;48.678;9.280;2024-02-21T07:32:29;7.78;;;2.20;;
8708;SDS011;4391;48.678;9.280;2024-02-21T07:34:58;11.93;;;2.88;;
8708;SDS011;4391;48.678;9.280;2024-02-21T07:37:25;9.23;;;2.60;;
8708;SDS011;4391;48.678;9.280;2024-02-21T07:39:52;11.25;;;2.50;;
8708;SDS011;4391;48.678;9.280;2024-02-21T07:42:18;7.77;;;2.23;;
8708;SDS011;4391;48.678;9.280;2024-02-21T07:44:45;9.48;;;2.42;;
8708;SDS011;4391;48.678;9.280;2024-02-21T07:47:12;10.07;;;2.70;;
8708;SDS011;4391;48.678;9.280;2024-02-21T07:49:43;11.40;;;2.00;;
8708;SDS011;4391;48.678;9.280;2024-02-21T07:52:12;10.52;;;2.97;;
8708;SDS011;4391;48.678;9.280;2024-02-21T07:54:39;7.53;;;1.90;;
8708;SDS011;4391;48.678;9.280;2024-02-21T07:57:06;9.40;;;2.97;;
8708;SDS011;4391;48.678;9.280;2024-02-21T07:59:33;7.15;;;1.95;;
8708;SDS011;4391;48.678;9.280;2024-02-21T08:01:59;8.82;;;2.22;;
8708;SDS011;4391;48.678;9.280;2024-02-21T08:04:27;7.70;;;2.40;;
8708;SDS011;4391;48.678;9.280;2024-02-21T08:06:54;8.93;;;2.50;;
8708;SDS011;4391;48.678;9.280;2024-02-21T08:09:25;7.13;;;1.88;;
8708;SDS011;4391;48.678;9.280;2024-02-21T08:11:53;7.47;;;1.98;;
8708;SDS011;4391;48.678;9.280;2024-02-21T08:14:20;7.57;;;2.10;;
8708;SDS011;4391;48.678;9.280;2024-02-21T08:16:49;7.10;;;1.90;;
8708;SDS011;4391;48.678;9.280;2024-02-21T08:19:18;9.70;;;1.77;;
8708;SDS011;4391;48.678;9.280;2024-02-21T08:21:47;8.90;;;1.80;;
8708;SDS011;4391;48.678;9.280;2024-02-21T08:24:14;9.65;;;1.98;;
8708;SDS011;4391;48.678;9.280;2024-02-21T08:26:42;7.53;;;1.95;;
8708;SDS011;4391;48.678;9.280;2024-02-21T08:29:10;8.48;;;2.47;;
8708;SDS011;4391;48.678;9.280;2024-02-21T08:31:37;9.93;;;2.20;;
8708;SDS011;4391;48.678;9.280;2024-02-21T08:34:04;12.43;;;2.38;;
8708;SDS011;4391;48.678;9.280;2024-02-21T08:36:31;7.72;;;2.00;;
8708;SDS011;4391;48.678;9.280;2024-02-21T08:38:59;7.78;;;2.38;;
8708;SDS011;4391;48.678;9.280;2024-02-21T08:41:26;8.63;;;2.65;;
8708;SDS011;4391;48.678;9.280;2024-02-21T08:43:54;8.80;;;1.87;;
8708;SDS011;4391;48.678;9.280;2024-02-21T08:46:21;8.65;;;2.00;;
8708;SDS011;4391;48.678;9.280;2024-02-21T08:48:49;7.93;;;1.63;;
8708;SDS011;4391;48.678;9.280;2024-02-21T08:51:16;8.13;;;1.73;;
8708;SDS011;4391;48.678;9.280;2024-02-21T08:53:43;6.07;;;1.55;;
8708;SDS011;4391;48.678;9.280;2024-02-21T08:56:10;9.03;;;2.13;;
8708;SDS011;4391;48.678;9.280;2024-02-21T08:58:38;7.35;;;1.58;;
8708;SDS011;4391;48.678;9.280;2024-02-21T09:01:07;9.95;;;1.80;;
8708;SDS011;4391;48.678;9.280;2024-02-21T09:03:35;4.88;;;1.58;;
8708;SDS011;4391;48.678;9.280;2024-02-21T09:06:02;6.95;;;1.58;;
8708;SDS011;4391;48.678;9.280;2024-02-21T09:08:30;9.40;;;1.37;;
8708;SDS011;4391;48.678;9.280;2024-02-21T09:10:57;6.28;;;1.50;;
8708;SDS011;4391;48.678;9.280;2024-02-21T09:13:26;6.97;;;1.70;;
8708;SDS011;4391;48.678;9.280;2024-02-21T09:15:53;5.72;;;1.60;;
8708;SDS011;4391;48.678;9.280;2024-02-21T09:18:22;5.93;;;1.55;;
8708;SDS011;4391;48.678;9.280;2024-02-21T09:20:48;7.93;;;1.87;;
8708;SDS011;4391;48.678;9.280;2024-02-21T09:23:15;8.85;;;1.90;;
8708;SDS011;4391;48.678;9.280;2024-02-21T09:25:44;7.63;;;1.90;;
8708;SDS011;4391;48.678;9.280;2024-02-21T09:28:12;6.63;;;2.03;;
8708;SDS011;4391;48.678;9.280;2024-02-21T09:30:39;5.45;;;2.05;;
8708;SDS011;4391;48.678;9.280;2024-02-21T09:33:06;5.33;;;1.53;;
8708;SDS011;4391;48.678;9.280;2024-02-21T09:35:34;7.28;;;2.00;;
8708;SDS011;4391;48.678;9.280;2024-02-21T09:38:01;8.07;;;1.95;;
8708;SDS011;4391;48.678;9.280;2024-02-21T09:40:27;7.68;;;2.00;;
8708;SDS011;4391;48.678;9.280;2024-02-21T09:42:56;8.80;;;2.05;;
8708;SDS011;4391;48.678;9.280;2024-02-21T09:45:29;4.93;;;1.80;;
8708;SDS011;4391;48.678;9.280;2024-02-21T09:48:00;8.05;;;2.00;;
8708;SDS011;4391;48.678;9.280;2024-02-21T09:50:41;11.55;;;1.70;;
8708;SDS011;4391;48.678;9.280;2024-02-21T09:53:10;6.60;;;1.73;;
8708;SDS011;4391;48.678;9.280;2024-02-21T09:55:38;8.45;;;1.55;;
8708;SDS011;4391;48.678;9.280;2024-02-21T09:58:07;10.23;;;2.00;;
8708;SDS011;4391;48.678;9.280;2024-02-21T10:00:34;5.35;;;1.58;;
8708;SDS011;4391;48.678;9.280;2024-02-21T10:03:01;6.57;;;1.70;;
8708;SDS011;4391;48.678;9.280;2024-02-21T10:05:34;9.07;;;1.70;;
8708;SDS011;4391;48.678;9.280;2024-02-21T10:08:03;8.32;;;1.92;;
8708;SDS011;4391;48.678;9.280;2024-02-21T10:10:39;4.00;;;1.50;;
8708;SDS011;4391;48.678;9.280;2024-02-21T10:13:07;4.72;;;1.48;;
8708;SDS011;4391;48.678;9.280;2024-02-21T10:15:35;9.02;;;1.50;;
8708;SDS011;4391;48.678;9.280;2024-02-21T10:18:02;5.75;;;1.42;;
8708;SDS011;4391;48.678;9.280;2024-02-21T10:20:31;5.75;;;1.60;;
8708;SDS011;4391;48.678;9.280;2024-02-21T10:23:03;8.03;;;1.57;;
8708;SDS011;4391;48.678;9.280;2024-02-21T10:25:33;6.07;;;1.48;;
8708;SDS011;4391;48.678;9.280;2024-02-21T10:28:00;8.02;;;1.63;;
8708;SDS011;4391;48.678;9.280;2024-02-21T10:30:29;5.38;;;1.23;;
8708;SDS011;4391;48.678;9.280;2024-02-21T10:32:56;6.18;;;1.75;;
8708;SDS011;4391;48.678;9.280;2024-02-21T10:35:27;6.17;;;1.83;;
8708;SDS011;4391;48.678;9.280;2024-02-21T10:37:55;6.95;;;1.60;;
8708;SDS011;4391;48.678;9.280;2024-02-21T10:40:24;5.57;;;1.70;;
8708;SDS011;4391;48.678;9.280;2024-02-21T10:42:54;6.53;;;1.75;;
8708;SDS011;4391;48.678;9.280;2024-02-21T10:45:27;9.13;;;1.50;;
8708;SDS011;4391;48.678;9.280;2024-02-21T10:47:59;6.20;;;1.40;;
8708;SDS011;4391;48.678;9.280;2024-02-21T10:50:33;8.32;;;2.05;;
8708;SDS011;4391;48.678;9.280;2024-02-21T10:53:23;7.03;;;1.60;;
8708;SDS011;4391;48.678;9.280;2024-02-21T10:56:01;6.05;;;1.80;;
8708;SDS011;4391;48.678;9.280;2024-02-21T10:58:35;5.80;;;1.63;;
8708;SDS011;4391;48.678;9.280;2024-02-21T11:01:02;4.70;;;1.17;;
8708;SDS011;4391;48.678;9.280;2024-02-21T11:03:31;5.28;;;1.30;;
8708;SDS011;4391;48.678;9.280;2024-02-21T11:05:58;4.93;;;1.45;;
8708;SDS011;4391;48.678;9.280;2024-02-21T11:08:26;3.47;;;0.95;;
8708;SDS011;4391;48.678;9.280;2024-02-21T11:10:56;5.30;;;1.20;;
8708;SDS011;4391;48.678;9.280;2024-02-21T11:13:31;4.37;;;1.30;;
8708;SDS011;4391;48.678;9.280;2024-02-21T11:16:05;3.75;;;1.00;;
8708;SDS011;4391;48.678;9.280;2024-02-21T11:18:34;5.93;;;1.10;;
8708;SDS011;4391;48.678;9.280;2024-02-21T11:21:01;4.85;;;1.00;;
8708;SDS011;4391;48.678;9.280;2024-02-21T11:23:29;6.78;;;1.30;;
8708;SDS011;4391;48.678;9.280;2024-02-21T11:26:06;4.13;;;0.83;;
8708;SDS011;4391;48.678;9.280;2024-02-21T11:28:34;7.38;;;1.38;;
8708;SDS011;4391;48.678;9.280;2024-02-21T11:31:08;5.53;;;1.25;;
8708;SDS011;4391;48.678;9.280;2024-02-21T11:33:39;5.13;;;1.33;;
8708;SDS011;4391;48.678;9.280;2024-02-21T11:36:06;3.40;;;1.08;;
8708;SDS011;4391;48.678;9.280;2024-02-21T11:38:33;4.03;;;1.03;;
8708;SDS011;4391;48.678;9.280;2024-02-21T11:41:00;5.63;;;1.30;;
8708;SDS011;4391;48.678;9.280;2024-02-21T11:43:28;6.50;;;1.60;;
8708;SDS011;4391;48.678;9.280;2024-02-21T11:46:00;6.57;;;1.70;;
8708;SDS011;4391;48.678;9.280;2024-02-21T11:48:28;6.00;;;1.30;;
8708;SDS011;4391;48.678;9.280;2024-02-21T11:50:56;4.83;;;1.20;;
8708;SDS011;4391;48.678;9.280;2024-02-21T11:53:23;5.57;;;1.25;;
8708;SDS011;4391;48.678;9.280;2024-02-21T11:55:55;6.88;;;1.60;;
8708;SDS011;4391;48.678;9.280;2024-02-21T11:58:22;6.00;;;1.20;;
8708;SDS011;4391;48.678;9.280;2024-02-21T12:00:50;6.78;;;1.33;;
8708;SDS011;4391;48.678;9.280;2024-02-21T12:03:18;6.23;;;1.40;;
8708;SDS011;4391;48.678;9.280;2024-02-21T12:05:45;5.18;;;1.50;;
8708;SDS011;4391;48.678;9.280;2024-02-21T12:08:12;7.65;;;1.30;;
8708;SDS011;4391;48.678;9.280;2024-02-21T12:10:41;4.03;;;1.40;;
8708;SDS011;4391;48.678;9.280;2024-02-21T12:13:09;8.35;;;1.80;;
8708;SDS011;4391;48.678;9.280;2024-02-21T12:15:38;6.70;;;1.23;;
8708;SDS011;4391;48.678;9.280;2024-02-21T12:18:05;5.47;;;1.52;;
8708;SDS011;4391;48.678;9.280;2024-02-21T12:20:34;4.57;;;1.20;;
8708;SDS011;4391;48.678;9.280;2024-02-21T12:23:02;6.75;;;1.05;;
8708;SDS011;4391;48.678;9.280;2024-02-21T12:25:29;4.85;;;1.40;;
8708;SDS011;4391;48.678;9.280;2024-02-21T12:27:56;3.97;;;1.00;;
8708;SDS011;4391;48.678;9.280;2024-02-21T12:30:25;5.28;;;1.13;;
8708;SDS011;4391;48.678;9.280;2024-02-21T12:32:51;4.40;;;1.15;;
8708;SDS011;4391;48.678;9.280;2024-02-21T12:35:18;11.50;;;2.25;;
8708;SDS011;4391;48.678;9.280;2024-02-21T12:37:46;4.85;;;1.30;;
8708;SDS011;4391;48.678;9.280;2024-02-21T12:40:13;4.53;;;0.90;;
8708;SDS011;4391;48.678;9.280;2024-02-21T12:42:40;3.92;;;1.00;;
8708;SDS011;4391;48.678;9.280;2024-02-21T12:45:07;9.65;;;1.10;;
8708;SDS011;4391;48.678;9.280;2024-02-21T12:47:35;4.22;;;0.80;;
8708;SDS011;4391;48.678;9.280;2024-02-21T12:50:01;5.55;;;0.80;;
8708;SDS011;4391;48.678;9.280;2024-02-21T12:52:31;7.33;;;1.10;;
8708;SDS011;4391;48.678;9.280;2024-02-21T12:55:00;6.30;;;0.95;;
8708;SDS011;4391;48.678;9.280;2024-02-21T12:57:26;4.63;;;1.00;;
8708;SDS011;4391;48.678;9.280;2024-02-21T12:59:54;3.83;;;0.90;;
8708;SDS011;4391;48.678;9.280;2024-02-21T13:02:20;5.50;;;1.25;;
8708;SDS011;4391;48.678;9.280;2024-02-21T13:04:47;5.13;;;0.80;;
8708;SDS011;4391;48.678;9.280;2024-02-21T13:07:14;3.72;;;1.23;;
8708;SDS011;4391;48.678;9.280;2024-02-21T13:09:41;6.95;;;1.15;;
8708;SDS011;4391;48.678;9.280;2024-02-21T13:12:09;2.47;;;0.82;;
8708;SDS011;4391;48.678;9.280;2024-02-21T13:14:37;5.10;;;1.25;;
8708;SDS011;4391;48.678;9.280;2024-02-21T13:17:04;6.00;;;1.27;;
8708;SDS011;4391;48.678;9.280;2024-02-21T13:19:32;5.68;;;0.90;;
8708;SDS011;4391;48.678;9.280;2024-02-21T13:21:58;3.42;;;1.08;;
8708;SDS011;4391;48.678;9.280;2024-02-21T13:24:25;9.70;;;3.00;;
8708;SDS011;4391;48.678;9.280;2024-02-21T13:26:52;3.78;;;1.08;;
8708;SDS011;4391;48.678;9.280;2024-02-21T13:29:20;2.57;;;1.00;;
8708;SDS011;4391;48.678;9.280;2024-02-21T13:31:47;4.10;;;1.00;;
8708;SDS011;4391;48.678;9.280;2024-02-21T13:34:15;2.58;;;1.10;;
8708;SDS011;4391;48.678;9.280;2024-02-21T13:36:42;6.18;;;1.17;;
8708;SDS011;4391;48.678;9.280;2024-02-21T13:39:09;3.08;;;1.10;;
8708;SDS011;4391;48.678;9.280;2024-02-21T13:41:38;3.53;;;1.10;;
8708;SDS011;4391;48.678;9.280;2024-02-21T13:44:04;5.22;;;1.27;;
8708;SDS011;4391;48.678;9.280;2024-02-21T13:46:33;3.53;;;1.10;;
8708;SDS011;4391;48.678;9.280;2024-02-21T13:49:02;2.50;;;0.82;;
8708;SDS011;4391;48.678;9.280;2024-02-21T13:51:31;3.10;;;0.93;;
8708;SDS011;4391;48.678;9.280;2024-02-21T13:53:58;4.70;;;0.80;;
8708;SDS011;4391;48.678;9.280;2024-02-21T13:56:25;4.97;;;0.80;;
8708;SDS011;4391;48.678;9.280;2024-02-21T13:58:52;4.22;;;1.10;;
8708;SDS011;4391;48.678;9.280;2024-02-21T14:01:19;2.63;;;0.70;;
8708;SDS011;4391;48.678;9.280;2024-02-21T14:03:47;3.08;;;0.85;;
8708;SDS011;4391;48.678;9.280;2024-02-21T14:06:14;4.50;;;1.03;;
8708;SDS011;4391;48.678;9.280;2024-02-21T14:08:42;2.75;;;0.93;;
8708;SDS011;4391;48.678;9.280;2024-02-21T14:11:09;3.53;;;0.90;;
8708;SDS011;4391;48.678;9.280;2024-02-21T14:13:36;3.42;;;0.88;;
8708;SDS011;4391;48.678;9.280;2024-02-21T14:16:03;3.90;;;1.00;;
8708;SDS011;4391;48.678;9.280;2024-02-21T14:18:37;5.00;;;1.10;;
8708;SDS011;4391;48.678;9.280;2024-02-21T14:21:07;4.13;;;1.30;;
8708;SDS011;4391;48.678;9.280;2024-02-21T14:23:35;3.80;;;1.10;;
8708;SDS011;4391;48.678;9.280;2024-02-21T14:26:04;3.20;;;1.15;;
8708;SDS011;4391;48.678;9.280;2024-02-21T14:28:32;5.43;;;1.38;;
8708;SDS011;4391;48.678;9.280;2024-02-21T14:30:59;4.03;;;1.30;;
8708;SDS011;4391;48.678;9.280;2024-02-21T14:33:26;3.85;;;1.15;;
8708;SDS011;4391;48.678;9.280;2024-02-21T14:35:54;5.55;;;1.17;;
8708;SDS011;4391;48.678;9.280;2024-02-21T14:38:22;4.47;;;1.05;;
8708;SDS011;4391;48.678;9.280;2024-02-21T14:40:49;4.95;;;1.17;;
8708;SDS011;4391;48.678;9.280;2024-02-21T14:43:16;5.13;;;1.13;;
8708;SDS011;4391;48.678;9.280;2024-02-21T14:45:43;4.35;;;1.25;;
8708;SDS011;4391;48.678;9.280;2024-02-21T14:48:12;5.45;;;1.33;;
8708;SDS011;4391;48.678;9.280;2024-02-21T14:50:40;3.13;;;1.00;;
8708;SDS011;4391;48.678;9.280;2024-02-21T14:53:07;3.78;;;1.33;;
8708;SDS011;4391;48.678;9.280;2024-02-21T14:55:35;2.97;;;0.93;;
8708;SDS011;4391;48.678;9.280;2024-02-21T14:58:03;3.33;;;1.33;;
8708;SDS011;4391;48.678;9.280;2024-02-21T15:00:32;4.43;;;1.10;;
8708;SDS011;4391;48.678;9.280;2024-02-21T15:03:00;4.65;;;1.10;;
8708;SDS011;4391;48.678;9.280;2024-02-21T15:05:27;4.93;;;1.20;;
8708;SDS011;4391;48.678;9.280;2024-02-21T15:07:55;3.50;;;1.23;;
8708;SDS011;4391;48.678;9.280;2024-02-21T15:10:23;3.53;;;0.95;;
8708;SDS011;4391;48.678;9.280;2024-02-21T15:12:51;5.65;;;1.38;;
8708;SDS011;4391;48.678;9.280;2024-02-21T15:15:17;3.97;;;0.90;;
8708;SDS011;4391;48.678;9.280;2024-02-21T15:17:44;3.00;;;0.95;;